Time;durP1;ratioP1;P1;durP2;ratioP2;P2;SDS_P1;SDS_P2;PMS_P1;PMS_P2;Temp;Humidity;BMP_temperature;BMP_pressure;BME280_temperature;BME280_humidity;BME280_pressure;Samples;Min_cycle;Max_cycle;Signal;HPM_P1;HPM_P2
2021/03/19 00:00:22;;;;;;;20.97;16.15;;;;;;;-1.12;74.71;98198.38;1725400;82;21373;-66
2021/03/19 00:02:51;;;;;;;17.48;14.25;;;;;;;-1.17;74.78;98192.34;1725345;83;20962;-68
2021/03/19 00:05:23;;;;;;;23.10;15.48;;;;;;;-1.20;74.92;98199.04;1725227;82;20934;-68
2021/03/19 00:07:53;;;;;;;20.82;17.32;;;;;;;-1.24;75.03;98192.56;1712030;83;21044;-68
2021/03/19 00:10:25;;;;;;;19.10;14.90;;;;;;;-1.29;75.15;98193.53;1712017;83;20892;-68
2021/03/19 00:12:53;;;;;;;18.45;14.73;;;;;;;-1.33;75.25;98193.64;1712016;83;21376;-68
2021/03/19 00:15:24;;;;;;;20.97;16.20;;;;;;;-1.36;75.40;98190.62;1711869;83;21037;-68
2021/03/19 00:17:55;;;;;;;17.77;15.05;;;;;;;-1.39;75.53;98185.89;1711722;83;20974;-68
2021/03/19 00:20:24;;;;;;;20.37;14.87;;;;;;;-1.42;75.61;98185.96;1710964;83;21594;-68
2021/03/19 00:22:52;;;;;;;19.55;16.07;;;;;;;-1.46;75.71;98182.08;1711969;83;20931;-68
2021/03/19 00:25:21;;;;;;;19.50;14.15;;;;;;;-1.50;75.86;98192.30;1711947;83;21390;-68
2021/03/19 00:27:48;;;;;;;25.12;16.85;;;;;;;-1.53;75.91;98187.11;1711897;83;20939;-67
2021/03/19 00:30:20;;;;;;;21.33;16.85;;;;;;;-1.56;75.97;98192.88;1711934;83;20983;-67
2021/03/19 00:32:50;;;;;;;20.55;15.80;;;;;;;-1.59;76.15;98189.00;1711861;83;20939;-67
2021/03/19 00:35:19;;;;;;;20.20;17.30;;;;;;;-1.62;76.13;98182.48;1711988;83;20935;-66
2021/03/19 00:37:47;;;;;;;24.20;17.27;;;;;;;-1.64;76.16;98190.42;1711890;83;21189;-67
2021/03/19 00:40:18;;;;;;;23.18;16.85;;;;;;;-1.67;76.43;98184.80;1711830;83;21030;-68
2021/03/19 00:42:46;;;;;;;20.52;16.50;;;;;;;-1.68;76.50;98187.47;1712007;83;21380;-67
2021/03/19 00:45:15;;;;;;;24.23;17.65;;;;;;;-1.69;76.54;98180.45;1711795;83;21003;-67
2021/03/19 00:47:47;;;;;;;19.30;16.77;;;;;;;-1.72;76.50;98181.41;1711843;83;20947;-69
2021/03/19 00:50:16;;;;;;;20.20;16.52;;;;;;;-1.74;76.54;98177.07;1711873;83;21211;-69
2021/03/19 00:52:45;;;;;;;21.57;15.80;;;;;;;-1.74;76.55;98178.39;1711884;83;21018;-69
2021/03/19 00:55:13;;;;;;;25.35;17.90;;;;;;;-1.76;76.61;98178.89;1711880;83;21009;-68
2021/03/19 00:57:41;;;;;;;23.32;16.90;;;;;;;-1.78;76.63;98175.40;1711859;83;21487;-68
2021/03/19 01:00:11;;;;;;;22.25;18.30;;;;;;;-1.81;76.67;98172.41;1711831;83;20887;-68
2021/03/19 01:02:38;;;;;;;23.30;16.40;;;;;;;-1.84;76.73;98175.96;1712006;83;21373;-68
2021/03/19 01:05:09;;;;;;;22.65;18.05;;;;;;;-1.86;76.80;98168.56;1711793;83;21006;-68
2021/03/19 01:07:41;;;;;;;23.38;18.42;;;;;;;-1.89;76.85;98169.95;1722205;83;20950;-68
2021/03/19 01:10:11;;;;;;;28.35;18.23;;;;;;;-1.92;76.91;98168.70;1725191;83;21516;-68
2021/03/19 01:12:39;;;;;;;26.27;18.40;;;;;;;-1.93;76.94;98172.22;1725308;83;20925;-68
2021/03/19 01:15:11;;;;;;;25.10;16.55;;;;;;;-1.95;77.12;98168.77;1725191;83;21370;-68
2021/03/19 01:17:38;;;;;;;26.23;18.02;;;;;;;-1.97;77.10;98169.27;1725293;82;21372;-68
2021/03/19 01:20:11;;;;;;;20.25;16.52;;;;;;;-2.00;77.11;98165.38;1725185;83;20930;-68
2021/03/19 01:22:41;;;;;;;22.67;17.90;;;;;;;-2.01;77.08;98170.22;1725351;83;20926;-68
2021/03/19 01:25:14;;;;;;;19.77;16.82;;;;;;;-2.04;77.15;98161.94;1725233;83;20931;-68
2021/03/19 01:27:44;;;;;;;22.35;17.20;;;;;;;-2.05;77.23;98171.17;1725431;82;21386;-69
2021/03/19 01:30:17;;;;;;;22.50;17.50;;;;;;;-2.10;77.25;98167.79;1725159;83;21061;-68
2021/03/19 01:32:49;;;;;;;24.02;17.48;;;;;;;-2.12;77.44;98170.91;1725252;83;20938;-68
2021/03/19 01:35:18;;;;;;;25.17;19.42;;;;;;;-2.15;77.50;98165.72;1725157;82;21005;-68
2021/03/19 01:37:45;;;;;;;24.95;18.17;;;;;;;-2.17;77.53;98168.84;1725282;82;20986;-69
2021/03/19 01:40:14;;;;;;;28.52;19.37;;;;;;;-2.20;77.59;98169.30;1725173;82;21226;-68
2021/03/19 01:42:51;;;;;;;23.83;18.52;;;;;;;-2.22;77.66;98166.31;1725075;82;20950;-68
2021/03/19 01:46:17;;;;;;;25.57;17.65;;;;;;;-2.25;77.76;98163.74;1725234;82;20906;-67
2021/03/19 01:49:41;;;;;;;26.97;18.75;;;;;;;-2.28;77.81;98163.34;1725272;83;21013;-68
2021/03/19 01:53:08;;;;;;;23.73;17.82;;;;;;;-2.31;77.97;98163.41;1725228;83;20962;-67
2021/03/19 01:56:31;;;;;;;21.25;14.55;;;;;;;-2.36;78.08;98157.39;1725251;82;21150;-67
2021/03/19 01:59:57;;;;;;;22.07;16.37;;;;;;;-2.40;78.15;98167.55;1725157;83;20943;-68
2021/03/19 02:03:21;;;;;;;23.07;18.65;;;;;;;-2.45;78.38;98164.16;1725331;83;20986;-68
2021/03/19 02:06:47;;;;;;;22.35;18.42;;;;;;;-2.49;78.49;98171.68;1725126;83;20945;-69
2021/03/19 02:10:12;;;;;;;26.00;20.77;;;;;;;-2.55;78.65;98170.92;1725183;83;21005;-68
2021/03/19 02:13:38;;;;;;;24.92;19.27;;;;;;;-2.58;78.85;98168.34;1725299;82;21041;-67
2021/03/19 02:17:02;;;;;;;26.42;19.15;;;;;;;-2.60;78.96;98170.16;1725126;83;20954;-68
2021/03/19 02:20:29;;;;;;;27.20;19.62;;;;;;;-2.62;79.02;98172.38;1725194;82;21069;-68
2021/03/19 02:23:54;;;;;;;23.47;19.20;;;;;;;-2.66;79.14;98175.53;1725241;83;20946;-68
2021/03/19 02:27:21;;;;;;;21.80;18.30;;;;;;;-2.68;79.16;98181.28;1725276;82;21459;-67
2021/03/19 02:30:44;;;;;;;25.40;18.65;;;;;;;-2.72;79.23;98180.91;1725179;83;21446;-67
2021/03/19 02:33:15;;;;;;;25.20;19.37;;;;;;;-2.75;79.37;98187.08;1725152;82;21068;-68
2021/03/19 02:35:54;;;;;;;22.80;17.67;;;;;;;-2.80;79.48;98180.20;1725132;82;21496;-68
2021/03/19 02:38:23;;;;;;;24.20;18.42;;;;;;;-2.82;79.53;98183.28;1725151;82;20950;-68
2021/03/19 02:40:50;;;;;;;25.35;19.75;;;;;;;-2.82;79.54;98187.22;1725219;83;20938;-67
2021/03/19 02:43:20;;;;;;;25.23;18.37;;;;;;;-2.84;79.56;98183.77;1725399;83;21206;-67
2021/03/19 02:45:50;;;;;;;26.25;20.12;;;;;;;-2.85;79.56;98187.28;1725347;82;21502;-67
2021/03/19 02:48:17;;;;;;;23.83;19.00;;;;;;;-2.87;79.50;98188.63;1725471;83;20946;-67
2021/03/19 02:50:44;;;;;;;25.27;19.15;;;;;;;-2.88;79.50;98190.00;1725420;83;21013;-68
2021/03/19 02:53:26;;;;;;;25.45;19.70;;;;;;;-2.89;79.54;98186.94;1725439;83;20962;-67
2021/03/19 02:55:56;;;;;;;22.22;18.07;;;;;;;-2.93;79.61;98192.25;1725321;83;21389;-68
2021/03/19 02:58:26;;;;;;;25.82;18.42;;;;;;;-2.92;79.71;98195.31;1725154;82;20998;-69
2021/03/19 03:00:54;;;;;;;25.57;18.65;;;;;;;-2.94;79.77;98188.34;1725249;82;21455;-68
2021/03/19 03:03:22;;;;;;;28.40;18.65;;;;;;;-2.94;79.79;98197.08;1725104;83;21033;-68
2021/03/19 03:05:51;;;;;;;21.65;18.52;;;;;;;-2.97;79.93;98198.91;1725137;83;20915;-68
2021/03/19 03:08:20;;;;;;;26.87;19.48;;;;;;;-2.99;80.00;98194.98;1709805;82;21381;-68
2021/03/19 03:10:51;;;;;;;23.27;17.90;;;;;;;-3.01;80.08;98195.47;1705449;84;20975;-68
2021/03/19 03:13:20;;;;;;;22.70;18.00;;;;;;;-3.01;80.08;98193.27;1705537;83;21385;-68
2021/03/19 03:15:49;;;;;;;26.62;19.57;;;;;;;-3.02;79.99;98205.55;1705357;84;20896;-69
2021/03/19 03:18:17;;;;;;;20.43;17.75;;;;;;;-3.02;80.08;98202.92;1705524;84;20971;-69
2021/03/19 03:20:56;;;;;;;21.73;19.27;;;;;;;-3.05;80.13;98202.13;1705643;84;21397;-68
2021/03/19 03:23:26;;;;;;;22.35;18.45;;;;;;;-3.06;80.20;98199.06;1705570;84;21018;-69
2021/03/19 03:25:56;;;;;;;25.77;17.92;;;;;;;-3.08;80.24;98200.41;1705603;84;21011;-69
2021/03/19 03:28:25;;;;;;;25.57;18.75;;;;;;;-3.10;80.23;98199.12;1705607;84;21007;-68
2021/03/19 03:30:56;;;;;;;27.67;19.02;;;;;;;-3.10;80.30;98200.89;1705619;83;21010;-68
2021/03/19 03:33:29;;;;;;;24.23;18.37;;;;;;;-3.10;80.38;98198.27;1705897;84;21382;-68
2021/03/19 03:35:56;;;;;;;29.07;19.42;;;;;;;-3.13;80.40;98199.17;1705522;84;21022;-68
2021/03/19 03:38:24;;;;;;;22.90;18.98;;;;;;;-3.16;80.49;98193.97;1705667;84;21042;-68
2021/03/19 03:40:59;;;;;;;22.90;17.50;;;;;;;-3.18;80.50;98201.02;1705597;84;21041;-68
2021/03/19 03:43:26;;;;;;;20.90;18.05;;;;;;;-3.18;80.44;98202.79;1705658;84;21011;-68
2021/03/19 03:45:55;;;;;;;23.62;18.12;;;;;;;-3.20;80.46;98204.55;1705590;83;21254;-68
2021/03/19 03:48:27;;;;;;;23.30;18.57;;;;;;;-3.23;80.52;98196.73;1705525;84;20998;-68
2021/03/19 03:50:56;;;;;;;25.00;18.80;;;;;;;-3.25;80.60;98192.81;1705565;83;21038;-68
2021/03/19 03:53:24;;;;;;;23.52;18.20;;;;;;;-3.26;80.65;98193.73;1705590;84;21006;-68
2021/03/19 03:55:52;;;;;;;25.02;18.65;;;;;;;-3.27;80.67;98196.77;1705570;84;20947;-67
2021/03/19 03:58:20;;;;;;;22.80;16.90;;;;;;;-3.30;80.67;98195.52;1705657;83;21919;-68
2021/03/19 04:00:49;;;;;;;25.25;18.25;;;;;;;-3.30;80.71;98198.14;1705501;84;20971;-68
2021/03/19 04:03:16;;;;;;;24.20;17.70;;;;;;;-3.31;80.80;98195.11;1705577;84;21014;-70
2021/03/19 04:05:47;;;;;;;21.60;16.50;;;;;;;-3.31;80.74;98194.23;1705522;83;20999;-69
2021/03/19 04:08:21;;;;;;;22.32;16.97;;;;;;;-3.33;80.77;98200.81;1712290;82;21435;-69
2021/03/19 04:10:51;;;;;;;23.05;15.93;;;;;;;-3.34;80.76;98199.11;1717399;83;22332;-68
2021/03/19 04:13:19;;;;;;;19.70;15.93;;;;;;;-3.34;80.75;98199.11;1717347;83;20963;-69
2021/03/19 04:15:49;;;;;;;26.80;18.50;;;;;;;-3.35;80.68;98203.92;1717262;83;20998;-68
2021/03/19 04:18:19;;;;;;;22.87;16.67;;;;;;;-3.35;80.61;98203.92;1717268;83;20951;-68
2021/03/19 04:20:49;;;;;;;24.30;17.07;;;;;;;-3.35;80.68;98205.70;1717281;83;20976;-69
2021/03/19 04:23:18;;;;;;;20.82;16.55;;;;;;;-3.33;80.66;98204.76;1715626;83;21393;-69
2021/03/19 04:25:46;;;;;;;21.48;16.35;;;;;;;-3.34;80.64;98197.79;1717227;83;21002;-68
2021/03/19 04:28:18;;;;;;;21.80;15.90;;;;;;;-3.34;80.64;98195.16;1717221;83;21073;-67
2021/03/19 04:30:47;;;;;;;24.90;17.35;;;;;;;-3.34;80.61;98192.53;1717342;83;21022;-69
2021/03/19 04:33:21;;;;;;;23.18;16.45;;;;;;;-3.34;80.57;98195.16;1717319;83;20935;-69
2021/03/19 04:36:18;;;;;;;20.72;16.55;;;;;;;-3.34;80.57;98191.65;1717318;83;21346;-69
2021/03/19 04:38:46;;;;;;;24.50;16.55;;;;;;;-3.33;80.58;98192.08;1717089;83;20962;-68
2021/03/19 04:41:15;;;;;;;20.45;15.28;;;;;;;-3.34;80.63;98195.16;1717244;83;21014;-68
2021/03/19 04:43:42;;;;;;;21.23;15.63;;;;;;;-3.31;80.58;98200.37;1717182;83;20951;-69
2021/03/19 04:46:10;;;;;;;32.63;18.25;;;;;;;-3.29;80.53;98202.97;1717075;83;20935;-67
2021/03/19 04:48:40;;;;;;;23.85;17.65;;;;;;;-3.28;80.43;98200.31;1717172;83;21211;-69
2021/03/19 04:51:07;;;;;;;37.53;23.18;;;;;;;-3.23;80.36;98209.86;1716947;83;21120;-69
2021/03/19 04:53:37;;;;;;;39.85;24.63;;;;;;;-3.20;80.39;98199.30;1714181;83;21578;-68
2021/03/19 04:56:05;;;;;;;38.83;23.25;;;;;;;-3.14;80.45;98211.02;1717029;83;21006;-68
2021/03/19 04:58:33;;;;;;;39.78;22.27;;;;;;;-3.07;80.37;98204.78;1717335;83;21490;-70
2021/03/19 05:01:00;;;;;;;33.75;21.10;;;;;;;-2.97;80.24;98213.36;1717113;83;21358;-69
2021/03/19 05:03:31;;;;;;;38.65;24.40;;;;;;;-2.88;80.09;98217.14;1717130;83;20915;-66
2021/03/19 05:05:58;;;;;;;31.97;23.25;;;;;;;-2.80;79.93;98207.80;1711314;83;20946;-68
2021/03/19 05:08:28;;;;;;;27.58;20.85;;;;;;;-2.70;79.85;98210.66;1714357;83;21014;-69
2021/03/19 05:10:56;;;;;;;26.87;19.52;;;;;;;-2.59;79.62;98220.52;1711826;83;21404;-67
2021/03/19 05:13:23;;;;;;;23.30;16.87;;;;;;;-2.46;79.25;98221.59;1711809;83;21475;-70
2021/03/19 05:15:51;;;;;;;20.08;16.95;;;;;;;-2.37;78.85;98217.47;1711800;83;20950;-69
2021/03/19 05:18:19;;;;;;;21.45;16.67;;;;;;;-2.28;78.54;98202.81;1711876;83;21002;-69
2021/03/19 05:20:47;;;;;;;24.67;17.77;;;;;;;-2.16;78.30;98204.77;1711513;83;20939;-68
2021/03/19 05:23:24;;;;;;;21.40;17.32;;;;;;;-2.03;78.13;98210.20;1711774;83;21011;-70
2021/03/19 05:25:52;;;;;;;19.73;15.03;;;;;;;-1.86;77.73;98205.84;1711750;83;21391;-69
2021/03/19 05:28:21;;;;;;;21.40;16.82;;;;;;;-1.63;77.21;98206.65;1711164;83;21054;-69
2021/03/19 05:30:54;;;;;;;23.62;18.23;;;;;;;-1.40;76.45;98213.12;1711291;83;21007;-69
2021/03/19 05:33:25;;;;;;;25.12;17.20;;;;;;;-1.17;75.64;98210.79;1711443;83;21030;-69
2021/03/19 05:35:55;;;;;;;23.77;18.25;;;;;;;-0.89;74.92;98211.41;1711310;83;21053;-69
2021/03/19 05:38:24;;;;;;;20.50;16.82;;;;;;;-0.61;74.15;98213.33;1711419;83;21393;-70
2021/03/19 05:40:55;;;;;;;20.12;15.58;;;;;;;-0.32;73.25;98215.59;1710780;83;21066;-69
2021/03/19 05:43:26;;;;;;;26.23;15.65;;;;;;;-0.06;72.48;98216.17;1713226;83;20998;-69
2021/03/19 05:46:01;;;;;;;21.33;15.63;;;;;;;0.18;71.62;98214.56;1711141;83;21014;-70
2021/03/19 05:48:57;;;;;;;21.07;16.35;;;;;;;0.41;70.88;98214.30;1711372;83;20944;-69
2021/03/19 05:51:42;;;;;;;16.73;14.30;;;;;;;0.61;70.14;98221.14;1711335;83;21337;-69
2021/03/19 05:54:30;;;;;;;17.07;14.85;;;;;;;0.76;69.21;98220.23;1711022;83;21025;-69
2021/03/19 05:57:08;;;;;;;20.40;16.32;;;;;;;0.85;68.28;98226.55;1711682;83;20947;-69
2021/03/19 05:59:49;;;;;;;19.07;14.87;;;;;;;0.97;67.96;98224.82;1711692;83;20959;-69
2021/03/19 06:02:28;;;;;;;14.70;12.55;;;;;;;1.13;67.65;98230.92;1711719;83;20931;-70
2021/03/19 06:05:02;;;;;;;16.02;14.20;;;;;;;1.31;67.13;98233.38;1711565;83;21420;-68
2021/03/19 06:07:59;;;;;;;16.67;14.85;;;;;;;1.49;66.15;98234.55;1709504;83;21034;-70
2021/03/19 06:10:41;;;;;;;17.30;14.53;;;;;;;1.66;65.55;98234.80;1716457;83;21047;-68
2021/03/19 06:13:21;;;;;;;18.95;15.30;;;;;;;1.87;65.03;98239.77;1716242;83;21045;-68
2021/03/19 06:15:52;;;;;;;19.15;16.05;;;;;;;2.02;64.34;98237.03;1716240;82;21036;-70
2021/03/19 06:18:43;;;;;;;17.02;15.08;;;;;;;2.16;63.58;98237.37;1716907;83;21389;-69
2021/03/19 06:21:27;;;;;;;21.52;16.02;;;;;;;2.27;62.85;98233.42;1716943;83;21275;-69
2021/03/19 06:24:27;;;;;;;17.95;16.15;;;;;;;2.37;62.65;98236.61;1717090;83;21040;-68
2021/03/19 06:26:59;;;;;;;17.85;15.90;;;;;;;2.47;61.78;98235.31;1688567;83;21071;-71
2021/03/19 06:29:47;;;;;;;15.58;13.20;;;;;;;2.59;61.23;98238.81;1714876;82;21088;-67
2021/03/19 06:32:27;;;;;;;15.98;13.20;;;;;;;2.73;61.09;98236.94;1716453;83;21276;-68
2021/03/19 06:35:16;;;;;;;13.68;12.15;;;;;;;2.82;60.03;98239.66;1716667;82;21072;-68
2021/03/19 06:37:50;;;;;;;16.17;14.25;;;;;;;2.87;59.61;98245.67;1716981;83;21056;-68
2021/03/19 06:40:27;;;;;;;;;;;;;;;2.93;59.48;98244.54;1719750;83;21499;-66
2021/03/19 06:42:54;;;;;;;23.30;15.43;;;;;;;3.00;58.74;98244.70;1716933;83;20156;-67
2021/03/19 06:45:25;;;;;;;13.80;12.40;;;;;;;3.09;59.12;98243.00;1689202;83;21381;-68
2021/03/19 06:47:57;;;;;;;13.75;12.35;;;;;;;3.23;58.80;98249.92;1717171;83;21072;-65
2021/03/19 06:50:31;;;;;;;13.95;12.47;;;;;;;3.33;58.19;98242.42;1717216;83;21025;-66
2021/03/19 06:53:25;;;;;;;15.13;12.78;;;;;;;3.48;58.61;98246.20;1716882;83;20930;-69
2021/03/19 06:56:15;;;;;;;13.98;12.58;;;;;;;3.63;57.96;98248.67;1717384;82;21470;-69
2021/03/19 06:58:48;;;;;;;13.62;11.05;;;;;;;3.81;56.56;98244.33;1717112;83;21385;-69
2021/03/19 07:01:39;;;;;;;13.68;12.03;;;;;;;3.87;55.84;98248.05;1717000;83;21013;-69
2021/03/19 07:04:41;;;;;;;12.18;11.00;;;;;;;3.93;55.87;98249.10;1717314;83;20906;-69
2021/03/19 07:07:48;;;;;;;13.50;12.15;;;;;;;3.92;56.02;98251.83;1699775;83;21155;-70
2021/03/19 07:11:01;;;;;;;14.23;12.73;;;;;;;3.93;56.25;98247.77;1724126;83;21045;-69
2021/03/19 07:13:53;;;;;;;13.38;10.95;;;;;;;3.91;56.42;98246.98;1725385;82;21212;-69
2021/03/19 07:16:45;;;;;;;13.22;11.95;;;;;;;3.94;56.18;98241.98;1700094;84;20997;-69
2021/03/19 07:19:31;;;;;;;13.15;11.00;;;;;;;4.07;56.06;98244.50;1725379;83;20966;-69
2021/03/19 07:22:12;;;;;;;12.55;11.18;;;;;;;4.28;56.76;98245.77;1725390;83;20899;-68
2021/03/19 07:25:12;;;;;;;15.60;13.93;;;;;;;4.39;56.71;98242.62;1724719;83;21068;-69
2021/03/19 07:28:06;;;;;;;13.60;12.30;;;;;;;4.44;55.09;98244.59;1725047;83;21382;-68
2021/03/19 07:31:03;;;;;;;13.90;12.18;;;;;;;4.39;55.15;98241.29;1725302;82;21277;-70
2021/03/19 07:33:45;;;;;;;14.87;13.38;;;;;;;4.30;56.07;98246.11;1725184;82;20997;-68
2021/03/19 07:36:33;;;;;;;18.15;15.00;;;;;;;4.26;55.20;98249.83;1724929;82;21021;-69
2021/03/19 07:39:41;;;;;;;14.90;12.05;;;;;;;4.16;55.32;98245.86;1725109;83;20920;-68
2021/03/19 07:42:31;;;;;;;12.18;10.90;;;;;;;4.03;55.25;98252.67;1725242;83;21206;-69
2021/03/19 07:45:25;;;;;;;11.93;10.72;;;;;;;3.85;56.01;98254.34;1725290;83;22021;-69
2021/03/19 07:48:33;;;;;;;13.53;10.72;;;;;;;3.66;56.02;98259.61;1725304;83;20962;-69
2021/03/19 07:51:30;;;;;;;16.50;12.28;;;;;;;3.49;56.40;98258.56;1725044;83;20931;-74
2021/03/19 07:54:24;;;;;;;14.28;11.03;;;;;;;3.29;56.81;98262.05;1725164;83;21554;-65
2021/03/19 07:57:09;;;;;;;12.75;10.03;;;;;;;3.17;57.50;98258.13;1725427;83;21344;-67
2021/03/19 08:00:03;;;;;;;12.43;11.22;;;;;;;3.11;58.28;98262.37;1725099;82;21646;-71
2021/03/19 08:02:37;;;;;;;13.45;12.03;;;;;;;3.08;57.80;98261.17;1718774;83;21044;-69
2021/03/19 08:05:22;;;;;;;16.95;12.47;;;;;;;3.04;58.20;98254.24;1725013;82;21033;-69
2021/03/19 08:08:15;;;;;;;15.35;12.82;;;;;;;3.02;58.29;98260.09;1725177;83;20950;-72
2021/03/19 08:11:17;;;;;;;16.60;11.63;;;;;;;2.91;58.35;98261.84;1712260;83;21273;-68
2021/03/19 08:14:26;;;;;;;15.60;13.40;;;;;;;2.81;59.05;98264.02;1711907;83;21034;-67
2021/03/19 08:17:23;;;;;;;14.33;12.82;;;;;;;2.68;59.59;98265.41;1692002;84;21542;-67
2021/03/19 08:20:09;;;;;;;14.15;12.65;;;;;;;2.58;60.51;98262.73;1692093;84;21385;-67
2021/03/19 08:23:08;;;;;;;13.85;12.33;;;;;;;2.45;60.71;98263.68;1706290;83;20907;-66
2021/03/19 08:25:46;;;;;;;18.95;14.05;;;;;;;2.37;61.21;98269.27;1711974;83;21209;-67
2021/03/19 08:28:35;;;;;;;19.60;15.95;;;;;;;2.28;61.70;98264.32;1711902;83;21610;-69
2021/03/19 08:31:26;;;;;;;17.15;13.08;;;;;;;2.21;62.71;98262.81;1711961;83;21049;-66
2021/03/19 08:34:25;;;;;;;15.25;13.53;;;;;;;2.18;62.19;98265.13;1711837;83;21002;-68
2021/03/19 08:36:55;;;;;;;13.15;11.83;;;;;;;2.24;62.10;98258.72;1711923;83;21042;-68
2021/03/19 08:39:31;;;;;;;15.48;13.62;;;;;;;2.36;60.17;98252.95;1711863;83;21204;-68
2021/03/19 08:42:13;;;;;;;15.55;13.48;;;;;;;2.48;60.10;98256.46;1711905;83;20915;-66
2021/03/19 08:44:45;;;;;;;17.10;13.62;;;;;;;2.60;60.34;98254.25;1711905;83;21018;-69
2021/03/19 08:47:32;;;;;;;17.05;15.30;;;;;;;2.85;60.44;98253.69;1712088;83;21472;-67
2021/03/19 08:50:29;;;;;;;18.30;15.58;;;;;;;3.10;60.32;98242.05;1712035;83;20884;-68
2021/03/19 08:53:22;;;;;;;21.37;15.43;;;;;;;3.37;60.18;98248.45;1711931;83;22845;-67
2021/03/19 08:56:08;;;;;;;19.25;15.20;;;;;;;3.58;59.05;98244.89;1711862;83;20966;-65
2021/03/19 08:58:46;;;;;;;28.12;17.42;;;;;;;3.64;58.11;98250.84;1694547;83;21010;-67
2021/03/19 09:01:50;;;;;;;18.23;16.32;;;;;;;3.52;58.27;98247.80;1711832;83;20994;-66
2021/03/19 09:05:02;;;;;;;19.98;16.40;;;;;;;3.30;58.56;98249.66;1842266;78;28816;-66
2021/03/19 09:07:37;;;;;;;14.43;12.95;;;;;;;3.14;59.21;98254.72;1817651;79;21394;-66
2021/03/19 09:10:19;;;;;;;17.82;15.95;;;;;;;2.93;58.37;98254.68;1817573;79;21360;-67
2021/03/19 09:13:07;;;;;;;16.27;14.58;;;;;;;2.76;58.38;98255.39;1817552;79;20991;-67
2021/03/19 09:15:38;;;;;;;17.40;13.28;;;;;;;2.63;58.88;98252.80;1813097;79;20923;-67
2021/03/19 09:18:41;;;;;;;15.03;13.08;;;;;;;2.50;59.05;98249.77;1817564;78;20975;-66
2021/03/19 09:21:36;;;;;;;15.60;12.55;;;;;;;2.34;58.91;98253.02;1817633;79;20952;-66
2021/03/19 09:24:17;;;;;;;15.08;13.48;;;;;;;2.23;59.62;98253.03;1817621;79;21358;-67
2021/03/19 09:26:54;;;;;;;20.97;16.05;;;;;;;2.12;59.95;98256.94;1817506;79;21667;-66
2021/03/19 09:29:33;;;;;;;14.23;11.85;;;;;;;2.07;60.15;98257.58;1784910;79;20909;-66
2021/03/19 09:32:40;;;;;;;16.97;13.30;;;;;;;2.05;60.73;98259.88;1817558;79;20979;-67
2021/03/19 09:35:37;;;;;;;15.00;12.20;;;;;;;1.98;60.51;98256.59;1817542;78;20908;-67
2021/03/19 09:38:26;;;;;;;28.23;13.08;;;;;;;1.95;60.92;98248.76;1817534;79;21351;-67
2021/03/19 09:40:58;;;;;;;15.15;11.85;;;;;;;1.91;60.14;98252.46;1817520;78;21184;-66
2021/03/19 09:43:48;;;;;;;16.70;12.18;;;;;;;1.91;59.80;98252.46;1817611;79;21338;-67
2021/03/19 09:46:21;;;;;;;15.30;10.55;;;;;;;1.91;59.92;98247.16;1817586;79;20916;-67
2021/03/19 09:48:59;;;;;;;;;;;;;;;1.91;59.55;98251.99;1819981;79;20976;-66
2021/03/19 09:51:44;;;;;;;24.37;13.62;;;;;;;1.91;59.67;98236.57;1815518;79;21153;-66
2021/03/19 09:54:34;;;;;;;13.83;12.35;;;;;;;1.91;59.62;98241.87;1817607;79;21342;-66
2021/03/19 09:57:22;;;;;;;13.22;11.55;;;;;;;1.91;59.75;98236.57;1817586;79;20997;-67
2021/03/19 10:00:06;;;;;;;12.58;11.10;;;;;;;1.90;60.03;98237.48;1815408;79;20980;-66
2021/03/19 10:02:39;;;;;;;21.25;11.73;;;;;;;1.89;59.69;98235.73;1815450;79;20880;-65
2021/03/19 10:05:26;;;;;;;14.98;10.60;;;;;;;1.90;59.82;98233.03;1806521;79;21254;-66
2021/03/19 10:07:56;;;;;;;17.85;10.48;;;;;;;1.94;59.46;98235.98;1806336;79;20936;-66
2021/03/19 10:10:40;;;;;;;14.20;12.80;;;;;;;1.97;58.71;98240.28;1806476;79;20917;-66
2021/03/19 10:13:23;;;;;;;13.53;12.13;;;;;;;1.99;59.31;98242.44;1806453;79;21406;-66
2021/03/19 10:15:53;;;;;;;14.87;13.22;;;;;;;2.00;59.36;98236.20;1805905;79;20972;-66
2021/03/19 10:18:40;;;;;;;14.65;12.93;;;;;;;2.04;59.54;98239.15;1805776;79;21134;-65
2021/03/19 10:21:18;;;;;;;17.17;14.10;;;;;;;2.11;59.60;98236.69;1805823;79;20940;-66
2021/03/19 10:24:01;;;;;;;14.95;13.03;;;;;;;2.16;59.50;98236.05;1805470;79;21035;-66
2021/03/19 10:26:51;;;;;;;19.85;13.62;;;;;;;2.20;59.04;98231.48;1805844;79;21000;-67
2021/03/19 10:29:31;;;;;;;14.38;12.65;;;;;;;2.26;58.51;98237.02;1805895;79;21442;-66
2021/03/19 10:32:08;;;;;;;11.33;10.05;;;;;;;2.32;58.21;98231.48;1805755;79;21257;-65
2021/03/19 10:34:55;;;;;;;13.38;11.88;;;;;;;2.37;57.42;98234.81;1805701;79;21000;-68
2021/03/19 10:37:41;;;;;;;15.53;10.38;;;;;;;2.41;55.33;98233.75;1805884;79;20921;-66
2021/03/19 10:40:39;;;;;;;14.93;8.53;;;;;;;2.41;55.72;98231.10;1805755;79;20901;-66
2021/03/19 10:43:27;;;;;;;12.07;10.35;;;;;;;2.46;54.88;98231.81;1805757;79;20912;-67
2021/03/19 10:46:02;;;;;;;12.28;10.18;;;;;;;2.50;55.08;98228.09;1805885;79;22275;-67
2021/03/19 10:48:45;;;;;;;12.75;10.98;;;;;;;2.55;54.87;98237.66;1805838;79;20968;-66
2021/03/19 10:51:35;;;;;;;17.80;11.80;;;;;;;2.57;54.85;98233.16;1805836;79;20881;-65
2021/03/19 10:54:32;;;;;;;11.83;10.40;;;;;;;2.59;55.13;98230.86;1805797;79;20869;-66
2021/03/19 10:57:14;;;;;;;12.13;10.85;;;;;;;2.62;54.23;98230.73;1805813;79;20933;-65
2021/03/19 10:59:43;;;;;;;16.30;12.80;;;;;;;2.64;54.09;98230.20;1802845;79;21179;-66
2021/03/19 11:02:16;;;;;;;12.88;9.95;;;;;;;2.64;53.92;98229.34;1781542;79;20936;-67
2021/03/19 11:04:48;;;;;;;17.98;12.20;;;;;;;2.64;54.01;98226.70;1805992;78;20949;-67
2021/03/19 11:07:25;;;;;;;91.40;42.83;;;;;;;2.60;53.64;98228.62;1798614;79;20866;-67
2021/03/19 11:10:14;;;;;;;20.95;12.10;;;;;;;2.59;52.98;98225.55;1805829;79;20891;-67
2021/03/19 11:12:59;;;;;;;19.52;13.03;;;;;;;2.59;53.04;98224.70;1805894;79;22227;-66
2021/03/19 11:15:35;;;;;;;43.08;23.42;;;;;;;2.63;52.96;98220.98;1797739;79;21481;-67
2021/03/19 11:18:34;;;;;;;18.77;14.53;;;;;;;2.64;53.74;98220.06;1805782;79;20929;-66
2021/03/19 11:21:16;;;;;;;16.07;11.57;;;;;;;2.70;53.73;98221.15;1805767;79;20913;-67
2021/03/19 11:24:17;;;;;;;16.32;13.00;;;;;;;2.75;53.78;98215.19;1805717;79;20972;-65
2021/03/19 11:27:09;;;;;;;10.20;8.65;;;;;;;2.79;53.04;98216.80;1805770;79;22186;-69
2021/03/19 11:29:44;;;;;;;9.83;8.45;;;;;;;2.76;53.20;98212.95;1805652;79;20979;-69
2021/03/19 11:32:20;;;;;;;10.45;9.03;;;;;;;2.74;52.58;98213.45;1805678;79;20940;-67
2021/03/19 11:34:57;;;;;;;9.68;8.43;;;;;;;2.71;52.61;98215.78;1805617;79;20878;-66
2021/03/19 11:37:30;;;;;;;13.45;8.98;;;;;;;2.68;52.58;98221.22;1805938;78;20869;-67
2021/03/19 11:40:03;;;;;;;10.48;9.30;;;;;;;2.67;52.13;98220.80;1805802;79;21462;-67
2021/03/19 11:42:37;;;;;;;9.08;8.18;;;;;;;2.66;51.90;98215.08;1805780;79;20932;-66
2021/03/19 11:45:16;;;;;;;10.10;9.03;;;;;;;2.66;51.84;98216.41;1805764;79;20896;-65
2021/03/19 11:48:13;;;;;;;8.38;7.58;;;;;;;2.63;51.33;98217.00;1805668;79;20913;-65
2021/03/19 11:50:48;;;;;;;9.15;7.33;;;;;;;2.61;51.60;98212.23;1805795;79;21484;-68
2021/03/19 11:53:28;;;;;;;10.40;8.65;;;;;;;2.55;52.05;98208.50;1842326;78;27987;-68
2021/03/19 11:55:58;;;;;;;8.68;7.78;;;;;;;2.48;53.51;98216.70;1817639;79;20980;-66
2021/03/19 11:58:30;;;;;;;13.40;8.33;;;;;;;2.48;54.07;98218.49;1817661;78;22210;-66
2021/03/19 12:00:57;;;;;;;10.80;9.70;;;;;;;2.49;54.36;98218.44;1817683;79;20964;-66
2021/03/19 12:03:42;;;;;;;11.65;9.10;;;;;;;2.51;54.66;98216.58;1817721;79;20968;-67
2021/03/19 12:06:12;;;;;;;10.95;9.90;;;;;;;2.53;54.25;98218.69;1817702;79;20928;-66
2021/03/19 12:08:41;;;;;;;17.57;11.48;;;;;;;2.56;54.52;98220.84;1817777;79;21349;-67
2021/03/19 12:11:14;;;;;;;9.10;8.20;;;;;;;2.59;54.68;98216.27;1817609;79;21382;-67
2021/03/19 12:13:48;;;;;;;9.35;8.45;;;;;;;2.61;54.04;98218.86;1815323;79;20999;-67
2021/03/19 12:16:16;;;;;;;10.43;8.10;;;;;;;2.63;54.26;98219.66;1817530;79;20991;-67
2021/03/19 12:18:45;;;;;;;10.93;9.05;;;;;;;2.63;53.81;98215.67;1817670;79;21433;-67
2021/03/19 12:21:12;;;;;;;10.18;9.15;;;;;;;2.66;52.79;98218.21;1817608;79;20881;-65